createdAt,value
2018-08-27T00:01:01.249Z,0
2018-08-27T00:02:09.896Z,0
2018-08-27T00:03:18.799Z,0
2018-08-27T00:04:27.444Z,0
2018-08-27T00:05:36.088Z,0
2018-08-27T00:06:44.739Z,0
2018-08-27T00:07:53.645Z,0
2018-08-27T00:09:02.289Z,0
2018-08-27T00:10:10.942Z,0
2018-08-27T00:11:19.847Z,0
2018-08-27T00:12:28.495Z,0
2018-08-27T00:13:37.137Z,0
2018-08-27T00:14:46.042Z,0
2018-08-27T00:15:54.946Z,0
2018-08-27T00:17:03.597Z,0
2018-08-27T00:18:12.238Z,0
2018-08-27T00:19:20.882Z,0
2018-08-27T00:20:29.790Z,0
2018-08-27T00:21:38.697Z,0
2018-08-27T00:22:47.340Z,0
2018-08-27T00:23:55.983Z,0
2018-08-27T00:25:04.623Z,0
2018-08-27T00:26:13.266Z,0
2018-08-27T00:27:21.921Z,0
2018-08-27T00:28:30.567Z,0
2018-08-27T00:29:39.209Z,0
2018-08-27T00:30:47.847Z,0
2018-08-27T00:31:56.498Z,0
2018-08-27T00:33:05.141Z,0
2018-08-27T00:34:13.785Z,0
2018-08-27T00:35:22.430Z,0
2018-08-27T00:36:31.080Z,0
2018-08-27T00:37:39.722Z,0
2018-08-27T00:38:48.380Z,0
2018-08-27T00:39:57.010Z,0
2018-08-27T00:41:05.667Z,0
2018-08-27T00:42:15.102Z,0
2018-08-27T00:43:23.746Z,0
2018-08-27T00:44:32.396Z,0
2018-08-27T00:45:41.309Z,0
2018-08-27T00:46:49.943Z,0
2018-08-27T00:47:58.854Z,0
2018-08-27T00:49:07.503Z,0
2018-08-27T00:50:16.143Z,0
2018-08-27T00:51:24.788Z,0
2018-08-27T00:52:33.434Z,0
2018-08-27T00:53:42.072Z,0
2018-08-27T00:54:50.722Z,0
2018-08-27T00:55:59.373Z,0
2018-08-27T00:57:08.013Z,0
2018-08-27T00:58:16.655Z,0
2018-08-27T00:59:25.302Z,0
2018-08-27T01:00:33.961Z,0
2018-08-27T01:01:42.592Z,0
2018-08-27T01:02:51.244Z,0
2018-08-27T01:03:59.886Z,0
2018-08-27T01:05:08.534Z,0
2018-08-27T01:06:17.182Z,0
2018-08-27T01:07:26.092Z,0
2018-08-27T01:08:34.732Z,0
2018-08-27T01:09:43.374Z,0
2018-08-27T01:10:52.016Z,0
2018-08-27T01:12:00.664Z,0
2018-08-27T01:13:09.303Z,0
2018-08-27T01:14:17.945Z,0
2018-08-27T01:15:26.588Z,0
2018-08-27T01:16:35.235Z,0
2018-08-27T01:17:44.139Z,0
2018-08-27T01:18:52.784Z,0
2018-08-27T01:20:01.425Z,0
2018-08-27T01:21:10.066Z,0
2018-08-27T01:22:18.985Z,0
2018-08-27T01:23:27.630Z,0
2018-08-27T01:24:36.273Z,0
2018-08-27T01:25:44.913Z,0
2018-08-27T01:26:53.560Z,0
2018-08-27T01:28:02.205Z,0
2018-08-27T01:29:10.849Z,0
2018-08-27T01:30:19.759Z,0
2018-08-27T01:31:28.410Z,0
2018-08-27T01:32:37.053Z,0
2018-08-27T01:33:45.699Z,0
2018-08-27T01:34:54.342Z,0
2018-08-27T01:36:02.997Z,0
2018-08-27T01:37:11.648Z,0
2018-08-27T01:38:20.822Z,0
2018-08-27T01:39:29.467Z,0
2018-08-27T01:40:38.367Z,0
2018-08-27T01:41:47.010Z,0
2018-08-27T01:42:55.654Z,0
2018-08-27T01:44:04.303Z,0
2018-08-27T01:45:12.943Z,0
2018-08-27T01:46:21.586Z,0
2018-08-27T01:47:30.233Z,0
2018-08-27T01:48:38.884Z,0
2018-08-27T01:49:47.778Z,0
2018-08-27T01:50:56.425Z,0
2018-08-27T01:52:05.065Z,0
2018-08-27T01:53:13.717Z,0
2018-08-27T01:54:22.886Z,0
2018-08-27T01:55:31.789Z,0
2018-08-27T01:56:40.432Z,0
2018-08-27T01:57:49.074Z,0
2018-08-27T01:58:57.743Z,0
2018-08-27T02:00:06.647Z,0
2018-08-27T02:01:15.303Z,0
2018-08-27T02:02:24.202Z,0
2018-08-27T02:03:32.860Z,0
2018-08-27T02:04:41.763Z,0
2018-08-27T02:05:50.421Z,0
2018-08-27T02:06:59.053Z,0
2018-08-27T02:08:07.705Z,0
2018-08-27T02:09:16.345Z,0
2018-08-27T02:10:24.990Z,0
2018-08-27T02:11:33.888Z,0
2018-08-27T02:12:42.534Z,0
2018-08-27T02:13:51.463Z,0
2018-08-27T02:15:00.109Z,0
2018-08-27T02:16:08.754Z,0
2018-08-27T02:17:17.393Z,0
2018-08-27T02:18:26.044Z,0
2018-08-27T02:19:34.682Z,0
2018-08-27T02:20:43.336Z,0
2018-08-27T02:21:51.972Z,0
2018-08-27T02:23:00.624Z,0
2018-08-27T02:24:09.258Z,0
2018-08-27T02:25:17.911Z,0
2018-08-27T02:26:26.544Z,0
2018-08-27T02:27:35.237Z,0
2018-08-27T02:28:43.831Z,0
2018-08-27T02:29:52.484Z,0
2018-08-27T02:31:01.127Z,0
2018-08-27T02:32:09.764Z,0
2018-08-27T02:33:18.409Z,0
2018-08-27T02:34:27.052Z,0
2018-08-27T02:35:35.707Z,0
2018-08-27T02:36:44.346Z,0
2018-08-27T02:37:52.995Z,0
2018-08-27T02:39:01.630Z,0
2018-08-27T02:40:10.282Z,0
2018-08-27T02:41:18.921Z,0
2018-08-27T02:42:27.577Z,0
2018-08-27T02:43:36.211Z,0
2018-08-27T02:44:44.866Z,0
2018-08-27T02:45:53.506Z,0
2018-08-27T02:47:02.160Z,0
2018-08-27T02:48:10.803Z,0
2018-08-27T02:49:19.452Z,0
2018-08-27T02:50:28.099Z,0
2018-08-27T02:51:36.741Z,0
2018-08-27T02:52:45.991Z,0
2018-08-27T02:53:54.630Z,0
2018-08-27T02:55:03.274Z,0
2018-08-27T02:56:11.918Z,0
2018-08-27T02:57:20.850Z,0
2018-08-27T02:58:29.479Z,0
2018-08-27T02:59:38.393Z,0
2018-08-27T03:00:47.036Z,0
2018-08-27T03:01:55.687Z,0
2018-08-27T03:03:04.325Z,0
2018-08-27T03:04:12.972Z,0
2018-08-27T03:05:21.615Z,0
2018-08-27T03:06:30.269Z,0
2018-08-27T03:07:38.961Z,0
2018-08-27T03:08:47.869Z,0
2018-08-27T03:09:56.509Z,0
2018-08-27T03:11:05.153Z,0
2018-08-27T03:12:14.327Z,0
2018-08-27T03:13:23.245Z,0
2018-08-27T03:14:31.893Z,0
2018-08-27T03:15:40.535Z,0
2018-08-27T03:16:49.183Z,0
2018-08-27T03:17:57.827Z,0
2018-08-27T03:19:06.475Z,0
2018-08-27T03:20:15.115Z,0
2018-08-27T03:21:24.025Z,0
2018-08-27T03:22:32.663Z,0
2018-08-27T03:23:41.575Z,0
2018-08-27T03:24:50.282Z,0
2018-08-27T03:25:58.859Z,0
2018-08-27T03:27:07.510Z,0
2018-08-27T03:28:16.161Z,0
2018-08-27T03:29:24.801Z,0
2018-08-27T03:30:33.732Z,0
2018-08-27T03:31:42.382Z,0
2018-08-27T03:32:51.027Z,0
2018-08-27T03:33:59.941Z,0
2018-08-27T03:35:08.581Z,0
2018-08-27T03:36:17.492Z,0
2018-08-27T03:37:26.137Z,0
2018-08-27T03:38:34.787Z,0
2018-08-27T03:39:43.426Z,0
2018-08-27T03:40:52.506Z,0
2018-08-27T03:42:01.148Z,0
2018-08-27T03:43:09.797Z,0
2018-08-27T03:44:18.436Z,0
2018-08-27T03:45:27.083Z,0
2018-08-27T03:46:35.725Z,0
2018-08-27T03:47:44.366Z,0
2018-08-27T03:48:53.019Z,0
2018-08-27T03:50:01.658Z,0
2018-08-27T03:51:10.575Z,0
2018-08-27T03:52:19.210Z,0
2018-08-27T03:53:27.865Z,0
2018-08-27T03:54:36.524Z,0
2018-08-27T03:55:45.428Z,0
2018-08-27T03:56:54.593Z,0
2018-08-27T03:58:03.233Z,0
2018-08-27T03:59:11.875Z,0
2018-08-27T04:00:20.521Z,0
2018-08-27T04:01:29.155Z,0
2018-08-27T04:02:37.802Z,0
2018-08-27T04:03:46.455Z,0
2018-08-27T04:04:55.107Z,0
2018-08-27T04:06:04.017Z,0
2018-08-27T04:07:12.651Z,0
2018-08-27T04:08:21.297Z,0
2018-08-27T04:09:29.936Z,0
2018-08-27T04:10:38.595Z,0
2018-08-27T04:11:47.492Z,0
2018-08-27T04:12:56.143Z,0
2018-08-27T04:14:04.785Z,0
2018-08-27T04:15:13.711Z,0
2018-08-27T04:16:22.334Z,0
2018-08-27T04:17:30.983Z,0
2018-08-27T04:18:39.627Z,0
2018-08-27T04:19:48.536Z,0
2018-08-27T04:20:57.177Z,0
2018-08-27T04:22:05.815Z,0
2018-08-27T04:23:14.453Z,0
2018-08-27T04:24:23.094Z,0
2018-08-27T04:25:31.746Z,0
2018-08-27T04:26:40.658Z,0
2018-08-27T04:27:49.572Z,0
2018-08-27T04:28:58.216Z,0
2018-08-27T04:30:06.859Z,0
2018-08-27T04:31:15.497Z,0
2018-08-27T04:32:24.151Z,0
2018-08-27T04:33:33.049Z,0
2018-08-27T04:34:42.267Z,0
2018-08-27T04:35:50.876Z,0
2018-08-27T04:36:59.783Z,0
2018-08-27T04:38:08.419Z,0
2018-08-27T04:39:17.065Z,0
2018-08-27T04:40:26.246Z,0
2018-08-27T04:41:34.889Z,0
2018-08-27T04:42:43.651Z,0
2018-08-27T04:43:52.169Z,0
2018-08-27T04:45:00.827Z,0
2018-08-27T04:46:09.465Z,5
2018-08-27T04:47:18.100Z,5
2018-08-27T04:48:26.753Z,5
2018-08-27T04:49:35.390Z,0
2018-08-27T04:50:44.046Z,0
2018-08-27T04:51:52.681Z,0
2018-08-27T04:53:01.336Z,5
2018-08-27T04:54:09.979Z,5
2018-08-27T04:55:18.622Z,5
2018-08-27T04:56:27.271Z,5
2018-08-27T04:57:35.909Z,5
2018-08-27T04:58:44.548Z,5
2018-08-27T04:59:53.201Z,5
2018-08-27T05:01:01.849Z,5
2018-08-27T05:02:10.485Z,5
2018-08-27T05:03:19.131Z,5
2018-08-27T05:04:27.770Z,10
2018-08-27T05:05:36.422Z,10
2018-08-27T05:06:45.056Z,5
2018-08-27T05:07:53.705Z,10
2018-08-27T05:09:02.357Z,10
2018-08-27T05:10:11.291Z,5
2018-08-27T05:11:19.926Z,5
2018-08-27T05:12:28.573Z,5
2018-08-27T05:13:37.224Z,5
2018-08-27T05:14:46.141Z,10
2018-08-27T05:15:55.314Z,10
2018-08-27T05:17:04.217Z,10
2018-08-27T05:18:12.860Z,10
2018-08-27T05:19:21.765Z,15
2018-08-27T05:20:30.415Z,15
2018-08-27T05:21:39.056Z,20
2018-08-27T05:22:47.965Z,20
2018-08-27T05:23:56.600Z,25
2018-08-27T05:25:05.253Z,20
2018-08-27T05:26:13.890Z,25
2018-08-27T05:27:22.537Z,25
2018-08-27T05:28:31.172Z,30
2018-08-27T05:29:39.824Z,30
2018-08-27T05:30:48.527Z,30
2018-08-27T05:31:57.111Z,25
2018-08-27T05:33:06.006Z,25
2018-08-27T05:34:14.653Z,20
2018-08-27T05:35:23.566Z,25
2018-08-27T05:36:32.210Z,30
2018-08-27T05:37:40.858Z,30
2018-08-27T05:38:49.492Z,30
2018-08-27T05:39:58.409Z,30
2018-08-27T05:41:07.048Z,30
2018-08-27T05:42:15.969Z,30
2018-08-27T05:43:24.869Z,30
2018-08-27T05:44:33.579Z,25
2018-08-27T05:45:42.156Z,30
2018-08-27T05:46:50.812Z,30
2018-08-27T05:47:59.453Z,25
2018-08-27T05:49:08.098Z,25
2018-08-27T05:50:17.013Z,35
2018-08-27T05:51:25.662Z,35
2018-08-27T05:52:34.304Z,45
2018-08-27T05:53:42.946Z,50
2018-08-27T05:54:51.590Z,40
2018-08-27T05:56:00.229Z,30
2018-08-27T05:57:08.926Z,25
2018-08-27T05:58:17.576Z,25
2018-08-27T05:59:26.224Z,25
2018-08-27T06:00:34.883Z,30
2018-08-27T06:01:43.591Z,25
2018-08-27T06:02:52.524Z,25
2018-08-27T06:04:01.366Z,25
2018-08-27T06:05:10.016Z,25
2018-08-27T06:06:18.662Z,25
2018-08-27T06:07:27.303Z,25
2018-08-27T06:08:36.213Z,25
2018-08-27T06:09:44.854Z,25
2018-08-27T06:10:53.532Z,30
2018-08-27T06:12:02.141Z,30
2018-08-27T06:13:11.050Z,30
2018-08-27T06:14:19.957Z,30
2018-08-27T06:15:29.150Z,30
2018-08-27T06:16:37.806Z,30
2018-08-27T06:17:46.438Z,25
2018-08-27T06:18:55.086Z,30
2018-08-27T06:20:03.729Z,30
2018-08-27T06:21:12.378Z,30
2018-08-27T06:22:21.053Z,30
2018-08-27T06:23:29.680Z,30
2018-08-27T06:24:38.320Z,30
2018-08-27T06:25:46.966Z,30
2018-08-27T06:26:55.608Z,40
2018-08-27T06:28:04.520Z,45
2018-08-27T06:29:13.163Z,45
2018-08-27T06:30:21.806Z,30
2018-08-27T06:31:30.448Z,30
2018-08-27T06:32:39.124Z,30
2018-08-27T06:33:47.742Z,25
2018-08-27T06:34:57.177Z,35
2018-08-27T06:36:06.090Z,30
2018-08-27T06:37:14.725Z,40
2018-08-27T06:38:23.388Z,40
2018-08-27T06:39:32.025Z,45
2018-08-27T06:40:40.674Z,50
2018-08-27T06:41:49.324Z,45
2018-08-27T06:42:58.090Z,40
2018-08-27T06:44:07.032Z,40
2018-08-27T06:45:15.679Z,45
2018-08-27T06:46:25.128Z,50
2018-08-27T06:47:33.776Z,40
2018-08-27T06:48:42.508Z,40
2018-08-27T06:49:51.154Z,35
2018-08-27T06:50:59.800Z,35
2018-08-27T06:52:08.434Z,55
2018-08-27T06:53:17.350Z,55
2018-08-27T06:54:25.988Z,55
2018-08-27T06:55:34.914Z,55
2018-08-27T06:56:43.563Z,45
2018-08-27T06:57:52.201Z,50
2018-08-27T06:59:00.903Z,50
2018-08-27T07:00:09.820Z,55
2018-08-27T07:01:18.458Z,70
2018-08-27T07:02:27.471Z,70
2018-08-27T07:03:36.377Z,75
2018-08-27T07:04:45.031Z,65
2018-08-27T07:05:53.673Z,65
2018-08-27T07:07:02.312Z,60
2018-08-27T07:08:10.966Z,55
2018-08-27T07:09:19.870Z,50
2018-08-27T07:10:28.523Z,40
2018-08-27T07:11:37.580Z,35
2018-08-27T07:12:46.154Z,40
2018-08-27T07:13:54.787Z,50
2018-08-27T07:15:03.441Z,55
2018-08-27T07:16:12.342Z,50
2018-08-27T07:17:20.989Z,55
2018-08-27T07:18:29.887Z,50
2018-08-27T07:19:38.549Z,45
2018-08-27T07:20:47.191Z,50
2018-08-27T07:21:55.840Z,50
2018-08-27T07:23:04.476Z,50
2018-08-27T07:24:13.130Z,65
2018-08-27T07:25:21.778Z,80
2018-08-27T07:26:30.690Z,75
2018-08-27T07:27:39.338Z,65
2018-08-27T07:28:47.976Z,50
2018-08-27T07:29:56.622Z,50
2018-08-27T07:31:05.267Z,50
2018-08-27T07:32:13.919Z,50
2018-08-27T07:33:22.552Z,55
2018-08-27T07:34:31.203Z,65
2018-08-27T07:35:39.895Z,80
2018-08-27T07:36:48.842Z,75
2018-08-27T07:37:57.476Z,75
2018-08-27T07:39:06.124Z,60
2018-08-27T07:40:14.769Z,55
2018-08-27T07:41:23.700Z,70
2018-08-27T07:42:32.325Z,75
2018-08-27T07:43:40.972Z,75
2018-08-27T07:44:49.878Z,85
2018-08-27T07:45:58.523Z,80
2018-08-27T07:47:07.173Z,85
2018-08-27T07:48:15.817Z,90
2018-08-27T07:49:24.460Z,105
2018-08-27T07:50:33.161Z,105
2018-08-27T07:51:41.746Z,90
2018-08-27T07:52:50.392Z,80
2018-08-27T07:53:59.037Z,90
2018-08-27T07:55:07.682Z,115
2018-08-27T07:56:16.331Z,145
2018-08-27T07:57:24.973Z,120
2018-08-27T07:58:34.041Z,140
2018-08-27T07:59:42.635Z,115
2018-08-27T08:00:51.282Z,130
2018-08-27T08:01:59.927Z,135
2018-08-27T08:03:08.662Z,165
2018-08-27T08:04:17.310Z,170
2018-08-27T08:05:25.952Z,170
2018-08-27T08:06:34.598Z,130
2018-08-27T08:07:43.244Z,140
2018-08-27T08:08:51.893Z,170
2018-08-27T08:10:00.535Z,180
2018-08-27T08:11:09.178Z,140
2018-08-27T08:12:17.823Z,115
2018-08-27T08:13:26.481Z,100
2018-08-27T08:14:35.118Z,110
2018-08-27T08:15:43.764Z,95
2018-08-27T08:16:52.401Z,100
2018-08-27T08:18:01.055Z,100
2018-08-27T08:19:09.965Z,100
2018-08-27T08:20:18.607Z,75
2018-08-27T08:21:27.248Z,85
2018-08-27T08:22:35.892Z,105
2018-08-27T08:23:44.820Z,90
2018-08-27T08:24:53.472Z,90
2018-08-27T08:26:02.378Z,100
2018-08-27T08:27:11.026Z,105
2018-08-27T08:28:19.719Z,125
2018-08-27T08:29:28.318Z,130
2018-08-27T08:30:36.961Z,115
2018-08-27T08:31:45.606Z,115
2018-08-27T08:32:54.260Z,140
2018-08-27T08:34:03.163Z,180
2018-08-27T08:35:11.810Z,225
2018-08-27T08:36:20.748Z,225
2018-08-27T08:37:29.398Z,255
2018-08-27T08:38:38.312Z,190
2018-08-27T08:39:47.026Z,135
2018-08-27T08:40:55.601Z,110
2018-08-27T08:42:04.252Z,120
2018-08-27T08:43:12.902Z,130
2018-08-27T08:44:21.814Z,120
2018-08-27T08:45:30.454Z,125
2018-08-27T08:46:39.105Z,140
2018-08-27T08:47:48.017Z,135
2018-08-27T08:48:56.663Z,185
2018-08-27T08:50:05.306Z,140
2018-08-27T08:51:13.955Z,105
2018-08-27T08:52:22.598Z,120
2018-08-27T08:53:31.616Z,155
2018-08-27T08:54:40.165Z,185
2018-08-27T08:55:48.813Z,145
2018-08-27T08:56:57.463Z,185
2018-08-27T08:58:06.112Z,205
2018-08-27T08:59:14.754Z,175
2018-08-27T09:00:23.392Z,145
2018-08-27T09:01:32.076Z,115
2018-08-27T09:02:40.950Z,100
2018-08-27T09:03:49.599Z,80
2018-08-27T09:04:58.245Z,60
2018-08-27T09:06:06.891Z,75
2018-08-27T09:07:15.540Z,65
2018-08-27T09:08:27.407Z,55
2018-08-27T09:09:36.017Z,55
2018-08-27T09:10:44.933Z,55
2018-08-27T09:11:53.577Z,50
2018-08-27T09:13:02.227Z,50
2018-08-27T09:14:10.872Z,60
2018-08-27T09:15:19.529Z,85
2018-08-27T09:16:28.172Z,85
2018-08-27T09:17:37.562Z,75
2018-08-27T09:18:46.190Z,75
2018-08-27T09:19:54.842Z,85
2018-08-27T09:21:03.490Z,85
2018-08-27T09:22:12.137Z,75
2018-08-27T09:23:20.786Z,75
2018-08-27T09:24:29.434Z,75
2018-08-27T09:25:38.085Z,90
2018-08-27T09:26:46.996Z,90
2018-08-27T09:27:55.643Z,95
2018-08-27T09:29:04.287Z,85
2018-08-27T09:30:12.934Z,95
2018-08-27T09:31:21.653Z,95
2018-08-27T09:32:30.230Z,85
2018-08-27T09:33:39.141Z,85
2018-08-27T09:34:47.787Z,65
2018-08-27T09:35:56.435Z,55
2018-08-27T09:37:05.182Z,90
2018-08-27T09:38:13.730Z,100
2018-08-27T09:39:22.370Z,100
2018-08-27T09:40:31.025Z,115
2018-08-27T09:41:40.060Z,140
2018-08-27T09:42:48.647Z,105
2018-08-27T09:43:57.295Z,100
2018-08-27T09:45:06.214Z,110
2018-08-27T09:46:15.126Z,105
2018-08-27T09:47:23.772Z,100
2018-08-27T09:48:32.422Z,110
2018-08-27T09:49:41.600Z,115
2018-08-27T09:50:50.247Z,135
2018-08-27T09:51:58.888Z,120
2018-08-27T09:53:07.546Z,110
2018-08-27T09:54:16.176Z,115
2018-08-27T09:55:25.104Z,100
2018-08-27T09:56:34.007Z,90
2018-08-27T09:57:42.666Z,100
2018-08-27T09:58:52.344Z,100
2018-08-27T10:00:00.835Z,90
2018-08-27T10:01:09.475Z,90
2018-08-27T10:02:18.134Z,100
2018-08-27T10:03:26.771Z,90
2018-08-27T10:04:35.427Z,100
2018-08-27T10:05:44.075Z,135
2018-08-27T10:06:52.724Z,110
2018-08-27T10:08:01.362Z,105
2018-08-27T10:09:10.168Z,95
2018-08-27T10:10:18.668Z,110
2018-08-27T10:11:27.316Z,120
2018-08-27T10:12:35.965Z,145
2018-08-27T10:13:44.604Z,140
2018-08-27T10:14:53.312Z,180
2018-08-27T10:16:01.902Z,135
2018-08-27T10:17:10.578Z,135
2018-08-27T10:18:19.393Z,130
2018-08-27T10:19:28.305Z,185
2018-08-27T10:20:36.952Z,215
2018-08-27T10:21:45.608Z,235
2018-08-27T10:22:54.245Z,170
2018-08-27T10:24:03.200Z,120
2018-08-27T10:25:12.050Z,145
2018-08-27T10:26:20.729Z,170
2018-08-27T10:27:29.649Z,190
2018-08-27T10:28:38.465Z,165
2018-08-27T10:29:47.271Z,170
2018-08-27T10:30:56.067Z,190
2018-08-27T10:32:05.129Z,165
2018-08-27T10:33:13.937Z,140
2018-08-27T10:34:22.793Z,145
2018-08-27T10:35:31.432Z,160
2018-08-27T10:36:40.090Z,180
2018-08-27T10:37:48.728Z,155
2018-08-27T10:38:58.472Z,145
2018-08-27T10:40:07.996Z,150
2018-08-27T10:41:16.634Z,105
2018-08-27T10:42:25.546Z,70
2018-08-27T10:43:34.500Z,70
2018-08-27T10:44:43.408Z,75
2018-08-27T10:45:52.054Z,75
2018-08-27T10:47:00.976Z,80
2018-08-27T10:48:09.886Z,100
2018-08-27T10:49:18.531Z,110
2018-08-27T10:50:27.230Z,130
2018-08-27T10:51:35.832Z,115
2018-08-27T10:52:44.741Z,115
2018-08-27T10:53:53.385Z,175
2018-08-27T10:55:02.038Z,240
2018-08-27T10:56:10.689Z,255
2018-08-27T10:57:19.616Z,250
2018-08-27T10:58:28.931Z,220
2018-08-27T10:59:37.848Z,215
2018-08-27T11:00:46.491Z,225
2018-08-27T11:01:55.409Z,185
2018-08-27T11:03:04.310Z,180
2018-08-27T11:04:12.966Z,195
2018-08-27T11:05:21.612Z,185
2018-08-27T11:06:30.259Z,170
2018-08-27T11:07:38.940Z,165
2018-08-27T11:08:47.573Z,160
2018-08-27T11:09:56.221Z,170
2018-08-27T11:11:04.870Z,185
2018-08-27T11:12:13.786Z,195
2018-08-27T11:13:22.430Z,210
2018-08-27T11:14:31.078Z,225
2018-08-27T11:15:39.895Z,230
2018-08-27T11:16:48.885Z,255
2018-08-27T11:17:57.534Z,265
2018-08-27T11:19:06.185Z,285
2018-08-27T11:20:14.954Z,290
2018-08-27T11:21:23.510Z,290
2018-08-27T11:22:32.158Z,295
2018-08-27T11:23:41.054Z,305
2018-08-27T11:24:50.038Z,320
2018-08-27T11:25:58.709Z,345
2018-08-27T11:27:07.372Z,305
2018-08-27T11:28:16.020Z,265
2018-08-27T11:29:24.846Z,280
2018-08-27T11:30:33.626Z,265
2018-08-27T11:31:42.280Z,270
2018-08-27T11:32:50.980Z,245
2018-08-27T11:33:59.894Z,250
2018-08-27T11:35:08.802Z,325
2018-08-27T11:36:17.525Z,305
2018-08-27T11:37:26.299Z,265
2018-08-27T11:38:35.045Z,255
2018-08-27T11:39:44.237Z,215
2018-08-27T11:40:53.542Z,155
2018-08-27T11:42:02.217Z,110
2018-08-27T11:43:11.217Z,70
2018-08-27T11:44:19.874Z,50
2018-08-27T11:45:28.512Z,40
2018-08-27T11:46:37.484Z,40
2018-08-27T11:47:46.128Z,50
2018-08-27T11:48:54.788Z,110
2018-08-27T11:50:03.458Z,170
2018-08-27T11:51:12.798Z,195
2018-08-27T11:52:21.444Z,180
2018-08-27T11:53:30.108Z,220
2018-08-27T11:54:38.752Z,230
2018-08-27T11:55:47.399Z,195
2018-08-27T11:56:56.045Z,190
2018-08-27T11:58:04.705Z,195
2018-08-27T11:59:13.349Z,195
2018-08-27T12:00:21.992Z,195
2018-08-27T12:01:30.637Z,195
2018-08-27T12:02:39.285Z,195
2018-08-27T12:03:47.942Z,195
2018-08-27T12:04:56.849Z,205
2018-08-27T12:06:05.504Z,205
2018-08-27T12:07:14.145Z,245
2018-08-27T12:08:22.801Z,260
2018-08-27T12:09:31.444Z,260
2018-08-27T12:10:40.097Z,270
2018-08-27T12:11:49.265Z,295
2018-08-27T12:12:58.190Z,340
2018-08-27T12:14:06.837Z,335
2018-08-27T12:15:15.488Z,310
2018-08-27T12:16:24.131Z,310
2018-08-27T12:17:32.784Z,325
2018-08-27T12:18:41.438Z,325
2018-08-27T12:19:50.150Z,325
2018-08-27T12:20:59.065Z,295
2018-08-27T12:22:07.996Z,310
2018-08-27T12:23:16.703Z,330
2018-08-27T12:24:25.354Z,355
2018-08-27T12:25:34.053Z,340
2018-08-27T12:26:43.299Z,340
2018-08-27T12:27:51.956Z,270
2018-08-27T12:29:00.860Z,255
2018-08-27T12:30:09.538Z,265
2018-08-27T12:31:18.446Z,235
2018-08-27T12:32:27.096Z,275
2018-08-27T12:33:35.755Z,265
2018-08-27T12:34:44.944Z,270
2018-08-27T12:35:53.619Z,295
2018-08-27T12:37:02.260Z,295
2018-08-27T12:38:10.914Z,220
2018-08-27T12:39:19.832Z,270
2018-08-27T12:40:28.792Z,260
2018-08-27T12:41:37.385Z,210
2018-08-27T12:42:46.291Z,215
2018-08-27T12:43:54.950Z,180
2018-08-27T12:45:03.590Z,235
2018-08-27T12:46:12.243Z,240
2018-08-27T12:47:20.891Z,185
2018-08-27T12:48:29.551Z,195
2018-08-27T12:49:38.224Z,220
2018-08-27T12:50:46.899Z,210
2018-08-27T12:51:55.533Z,205
2018-08-27T12:53:04.193Z,235
2018-08-27T12:54:12.840Z,225
2018-08-27T12:55:21.484Z,260
2018-08-27T12:56:30.138Z,315
2018-08-27T12:57:38.789Z,300
2018-08-27T12:58:47.775Z,240
2018-08-27T12:59:56.393Z,225
2018-08-27T13:01:05.318Z,170
2018-08-27T13:02:13.959Z,120
2018-08-27T13:03:22.618Z,105
2018-08-27T13:04:31.265Z,95
2018-08-27T13:05:40.273Z,110
2018-08-27T13:06:48.881Z,120
2018-08-27T13:07:58.020Z,145
2018-08-27T13:09:06.657Z,165
2018-08-27T13:10:15.576Z,205
2018-08-27T13:11:24.575Z,245
2018-08-27T13:12:33.283Z,265
2018-08-27T13:13:41.794Z,280
2018-08-27T13:14:50.450Z,255
2018-08-27T13:15:59.366Z,245
2018-08-27T13:17:08.011Z,220
2018-08-27T13:18:16.666Z,185
2018-08-27T13:19:25.575Z,180
2018-08-27T13:20:34.233Z,170
2018-08-27T13:21:42.873Z,160
2018-08-27T13:22:51.525Z,155
2018-08-27T13:24:00.169Z,165
2018-08-27T13:25:08.832Z,170
2018-08-27T13:26:17.735Z,180
2018-08-27T13:27:26.391Z,190
2018-08-27T13:28:35.836Z,200
2018-08-27T13:29:44.493Z,200
2018-08-27T13:30:53.412Z,230
2018-08-27T13:32:02.439Z,230
2018-08-27T13:33:11.086Z,220
2018-08-27T13:34:19.993Z,210
2018-08-27T13:35:28.692Z,200
2018-08-27T13:36:37.299Z,200
2018-08-27T13:37:46.217Z,210
2018-08-27T13:38:55.131Z,235
2018-08-27T13:40:04.137Z,230
2018-08-27T13:41:12.780Z,235
2018-08-27T13:42:21.431Z,250
2018-08-27T13:43:30.074Z,265
2018-08-27T13:44:38.732Z,260
2018-08-27T13:45:47.375Z,250
2018-08-27T13:46:56.028Z,255
2018-08-27T13:48:04.676Z,265
2018-08-27T13:49:13.590Z,270
2018-08-27T13:50:22.240Z,280
2018-08-27T13:51:30.892Z,270
2018-08-27T13:52:39.542Z,275
2018-08-27T13:53:48.186Z,280
2018-08-27T13:54:56.836Z,280
2018-08-27T13:56:05.486Z,275
2018-08-27T13:57:14.141Z,270
2018-08-27T13:58:23.050Z,270
2018-08-27T13:59:31.701Z,270
2018-08-27T14:00:40.349Z,280
2018-08-27T14:01:49.011Z,270
2018-08-27T14:02:57.655Z,270
2018-08-27T14:04:06.576Z,265
2018-08-27T14:05:15.387Z,270
2018-08-27T14:06:23.972Z,265
2018-08-27T14:07:32.541Z,265
2018-08-27T14:08:41.191Z,260
2018-08-27T14:09:49.839Z,260
2018-08-27T14:10:59.018Z,265
2018-08-27T14:12:07.941Z,265
2018-08-27T14:13:16.854Z,275
2018-08-27T14:14:25.555Z,275
2018-08-27T14:15:35.043Z,305
2018-08-27T14:16:44.066Z,300
2018-08-27T14:17:52.715Z,245
2018-08-27T14:19:01.374Z,240
2018-08-27T14:20:10.223Z,235
2018-08-27T14:21:18.666Z,230
2018-08-27T14:22:27.309Z,230
2018-08-27T14:23:35.961Z,235
2018-08-27T14:24:44.887Z,240
2018-08-27T14:25:53.594Z,240
2018-08-27T14:27:02.201Z,240
2018-08-27T14:28:10.852Z,235
2018-08-27T14:29:19.588Z,235
2018-08-27T14:30:28.229Z,235
2018-08-27T14:31:36.888Z,235
2018-08-27T14:32:45.543Z,235
2018-08-27T14:33:54.226Z,235
2018-08-27T14:35:02.865Z,230
2018-08-27T14:36:11.522Z,220
2018-08-27T14:37:20.173Z,210
2018-08-27T14:38:28.856Z,205
2018-08-27T14:39:37.775Z,200
2018-08-27T14:40:46.757Z,195
2018-08-27T14:41:55.347Z,185
2018-08-27T14:43:04.006Z,170
2018-08-27T14:44:12.951Z,160
2018-08-27T14:45:21.860Z,155
2018-08-27T14:46:30.534Z,160
2018-08-27T14:47:39.227Z,170
2018-08-27T14:48:47.867Z,170
2018-08-27T14:49:56.774Z,190
2018-08-27T14:51:05.429Z,195
2018-08-27T14:52:14.068Z,190
2018-08-27T14:53:23.020Z,185
2018-08-27T14:54:31.661Z,185
2018-08-27T14:55:40.577Z,195
2018-08-27T14:56:49.217Z,185
2018-08-27T14:57:57.878Z,180
2018-08-27T14:59:06.799Z,170
2018-08-27T15:00:15.449Z,160
2018-08-27T15:01:24.904Z,160
2018-08-27T15:02:33.818Z,155
2018-08-27T15:03:42.473Z,150
2018-08-27T15:04:51.388Z,150
2018-08-27T15:06:00.043Z,155
2018-08-27T15:07:08.690Z,160
2018-08-27T15:08:17.609Z,175
2018-08-27T15:09:26.280Z,185
2018-08-27T15:10:35.249Z,180
2018-08-27T15:11:43.938Z,185
2018-08-27T15:12:52.596Z,210
2018-08-27T15:14:01.240Z,185
2018-08-27T15:15:09.912Z,185
2018-08-27T15:16:18.635Z,180
2018-08-27T15:17:27.287Z,170
2018-08-27T15:18:35.952Z,150
2018-08-27T15:19:44.612Z,135
2018-08-27T15:20:53.260Z,130
2018-08-27T15:22:02.172Z,130
2018-08-27T15:23:11.125Z,120
2018-08-27T15:24:19.773Z,100
2018-08-27T15:25:28.432Z,85
2018-08-27T15:26:37.080Z,70
2018-08-27T15:27:45.732Z,65
2018-08-27T15:28:54.631Z,55
2018-08-27T15:30:03.287Z,55
2018-08-27T15:31:11.938Z,50
2018-08-27T15:32:20.586Z,50
2018-08-27T15:33:29.230Z,45
2018-08-27T15:34:37.886Z,45
2018-08-27T15:35:46.539Z,40
2018-08-27T15:36:55.351Z,45
2018-08-27T15:38:03.994Z,55
2018-08-27T15:39:12.671Z,65
2018-08-27T15:40:21.319Z,75
2018-08-27T15:41:29.985Z,70
2018-08-27T15:42:38.900Z,95
2018-08-27T15:43:47.877Z,110
2018-08-27T15:44:56.527Z,120
2018-08-27T15:46:05.440Z,125
2018-08-27T15:47:14.390Z,130
2018-08-27T15:48:23.041Z,150
2018-08-27T15:49:32.051Z,145
2018-08-27T15:50:41.069Z,150
2018-08-27T15:51:49.693Z,150
2018-08-27T15:52:58.604Z,145
2018-08-27T15:54:07.255Z,135
2018-08-27T15:55:15.901Z,110
2018-08-27T15:56:24.556Z,100
2018-08-27T15:57:33.203Z,80
2018-08-27T15:58:41.863Z,45
2018-08-27T15:59:50.519Z,35
2018-08-27T16:00:59.434Z,25
2018-08-27T16:02:08.087Z,25
2018-08-27T16:03:17.155Z,25
2018-08-27T16:04:25.764Z,25
2018-08-27T16:05:34.639Z,40
2018-08-27T16:06:43.060Z,60
2018-08-27T16:07:51.706Z,80
2018-08-27T16:09:00.356Z,100
2018-08-27T16:10:08.996Z,115
2018-08-27T16:11:17.917Z,125
2018-08-27T16:12:26.561Z,130
2018-08-27T16:13:35.216Z,130
2018-08-27T16:14:43.860Z,135
2018-08-27T16:15:52.511Z,135
2018-08-27T16:17:01.159Z,140